Terminal Aerodrome Forecast
Issued by NWS

Home | Current Version | Previous Version | Text Only | Print | Product List | Glossary On
Versions: 1 2 3 4 5 6 7 8 9 10 11 12 13 14 15
000
FTUS42 KTAE 200500
TAFVLD
TAF
KVLD 200539Z 2006/2106 00000KT P6SM OVC050
     FM201100 04003KT P6SM BKN050 OVC100
     FM210100 05005KT P6SM OVC020=

USA.gov is the U.S. government's official web portal to all federal, state and local government web resources and services.